Time;durP1;ratioP1;P1;durP2;ratioP2;P2;SDS_P1;SDS_P2;PMS_P1;PMS_P2;Temp;Humidity;BMP_temperature;BMP_pressure;BME280_temperature;BME280_humidity;BME280_pressure;Samples;Min_cycle;Max_cycle;Signal;HPM_P1;HPM_P2
2023/09/03 00:01:30;;;;;;;18.38;11.70;;;;;;;17.20;100.00;101961.88;6110158;23;20029;-71
2023/09/03 00:03:57;;;;;;;16.48;11.88;;;;;;;17.23;100.00;101921.03;6112542;23;20049;-71
2023/09/03 00:06:23;;;;;;;14.77;11.02;;;;;;;16.77;100.00;101874.25;6112482;23;20024;-71
2023/09/03 00:08:50;;;;;;;16.65;11.40;;;;;;;16.59;100.00;101847.03;6117942;23;20361;-72
2023/09/03 00:11:16;;;;;;;16.65;12.05;;;;;;;17.02;100.00;101936.44;6109692;23;20045;-71
2023/09/03 00:13:43;;;;;;;17.25;11.80;;;;;;;16.89;100.00;101910.66;6111490;23;20694;-71
2023/09/03 00:16:10;;;;;;;19.88;11.55;;;;;;;16.90;100.00;101903.56;6092980;23;20079;-70
2023/09/03 00:18:37;;;;;;;18.55;12.05;;;;;;;16.78;100.00;101843.28;6113589;23;20025;-71
2023/09/03 00:21:05;;;;;;;14.65;11.27;;;;;;;17.21;100.00;101912.31;6083591;23;20033;-72
2023/09/03 00:23:32;;;;;;;16.33;11.73;;;;;;;17.05;100.00;101893.84;6115153;23;20021;-70
2023/09/03 00:25:59;;;;;;;14.25;11.23;;;;;;;16.47;100.00;101834.50;6112979;23;20028;-69
2023/09/03 00:28:26;;;;;;;15.30;11.20;;;;;;;16.38;100.00;101856.22;6115148;23;20053;-69
2023/09/03 00:31:08;;;;;;;20.23;12.05;;;;;;;16.24;100.00;101873.78;6110267;23;20032;-69
2023/09/03 00:33:36;;;;;;;13.70;11.27;;;;;;;16.51;100.00;101931.44;6113887;23;20033;-69
2023/09/03 00:36:05;;;;;;;17.63;11.90;;;;;;;16.18;100.00;101895.34;6113024;23;20072;-69
2023/09/03 00:38:32;;;;;;;17.42;12.93;;;;;;;16.40;100.00;101940.00;6090557;23;20304;-69
2023/09/03 00:40:58;;;;;;;15.88;11.35;;;;;;;16.23;100.00;101921.53;6087032;23;20032;-71
2023/09/03 00:43:26;;;;;;;15.35;12.07;;;;;;;16.31;100.00;101936.06;6089199;23;20350;-71
2023/09/03 00:45:53;;;;;;;17.55;12.18;;;;;;;16.39;100.00;101950.69;6112619;23;20220;-71
2023/09/03 00:48:23;;;;;;;18.85;12.25;;;;;;;16.45;100.00;101950.31;6113068;23;20489;-70
2023/09/03 00:50:51;;;;;;;15.05;10.70;;;;;;;16.24;100.00;101904.72;6107598;23;20021;-71
2023/09/03 00:53:19;;;;;;;15.73;11.00;;;;;;;16.41;100.00;101935.53;6115411;23;20040;-71
2023/09/03 00:55:46;;;;;;;12.20;10.73;;;;;;;15.90;100.00;101870.41;6060327;23;20021;-73
2023/09/03 00:58:13;;;;;;;17.58;10.68;;;;;;;16.21;100.00;101934.88;6113785;23;20026;-70
2023/09/03 01:00:40;;;;;;;20.27;11.30;;;;;;;16.25;100.00;101941.69;6108621;23;20049;-70
2023/09/03 01:03:07;;;;;;;18.48;12.00;;;;;;;16.18;100.00;101929.75;6113602;23;20009;-70
2023/09/03 01:05:33;;;;;;;17.73;11.65;;;;;;;16.29;100.00;101937.94;6080788;23;20050;-71
2023/09/03 01:08:02;;;;;;;17.75;11.80;;;;;;;16.58;100.00;101964.59;6111157;23;20089;-71
2023/09/03 01:10:43;;;;;;;17.95;13.13;;;;;;;16.58;100.00;101938.09;6111249;23;20022;-70
2023/09/03 01:13:25;;;;;;;17.73;12.13;;;;;;;16.33;100.00;101939.47;6109479;23;20037;-70
2023/09/03 01:15:53;;;;;;;20.08;13.18;;;;;;;15.83;100.00;101906.06;6112019;23;20455;-70
2023/09/03 01:18:23;;;;;;;13.98;10.57;;;;;;;16.06;100.00;101983.41;6109161;23;20029;-70
2023/09/03 01:21:17;;;;;;;18.63;12.52;;;;;;;16.08;100.00;101995.63;6087098;23;20033;-70
2023/09/03 01:24:10;;;;;;;11.88;10.45;;;;;;;16.05;100.00;102002.88;6110165;23;20029;-70
2023/09/03 01:27:03;;;;;;;21.75;12.27;;;;;;;16.08;100.00;102003.56;6084993;23;20610;-70
2023/09/03 01:29:30;;;;;;;19.88;11.93;;;;;;;16.01;100.00;101999.53;6114249;23;20607;-69
2023/09/03 01:32:00;;;;;;;13.55;11.20;;;;;;;16.09;100.00;102002.63;6081545;23;20056;-70
2023/09/03 01:34:26;;;;;;;20.02;11.93;;;;;;;16.15;100.00;101991.69;6106356;23;20030;-70
2023/09/03 01:36:53;;;;;;;18.00;11.73;;;;;;;16.05;100.00;101998.44;6067528;23;20037;-70
2023/09/03 01:39:20;;;;;;;15.10;10.82;;;;;;;16.07;100.00;102006.28;6114897;23;20024;-70
2023/09/03 01:41:47;;;;;;;18.35;11.57;;;;;;;15.88;100.00;101961.44;6082018;23;20038;-70
2023/09/03 01:44:13;;;;;;;17.42;12.18;;;;;;;15.61;100.00;101894.94;6112365;23;20025;-70
2023/09/03 01:46:48;;;;;;;17.35;12.15;;;;;;;15.87;100.00;101951.78;6106702;23;20029;-71
2023/09/03 01:49:20;;;;;;;21.70;12.63;;;;;;;16.16;100.00;102003.16;6108690;23;20554;-70
2023/09/03 01:52:17;;;;;;;23.90;12.25;;;;;;;16.14;100.00;102008.53;6112996;23;20113;-71
2023/09/03 01:54:48;;;;;;;19.80;12.55;;;;;;;15.98;100.00;102018.25;6113751;23;20035;-70
2023/09/03 01:57:22;;;;;;;15.68;11.43;;;;;;;15.99;100.00;102029.69;6089718;23;20082;-71
2023/09/03 01:59:53;;;;;;;18.33;12.48;;;;;;;16.08;100.00;102024.75;6108001;23;20029;-70
2023/09/03 02:02:20;;;;;;;20.05;12.52;;;;;;;16.06;100.00;102025.78;6086121;23;20110;-70
2023/09/03 02:04:47;;;;;;;14.10;11.18;;;;;;;16.10;100.00;102009.63;6112431;23;20040;-70
2023/09/03 02:07:17;;;;;;;12.27;10.68;;;;;;;16.09;100.00;101994.66;6084204;23;20041;-70
2023/09/03 02:09:43;;;;;;;15.20;11.57;;;;;;;15.92;100.00;101982.38;6110191;23;20113;-70
2023/09/03 02:12:10;;;;;;;15.50;11.88;;;;;;;16.01;100.00;101999.53;6113205;23;20077;-71
2023/09/03 02:14:36;;;;;;;17.80;12.43;;;;;;;15.70;100.00;101966.75;6111501;23;20045;-69
2023/09/03 02:17:03;;;;;;;16.05;11.73;;;;;;;15.75;100.00;101969.16;6086175;23;20010;-71
2023/09/03 02:19:29;;;;;;;17.05;11.90;;;;;;;15.88;100.00;102027.63;6114790;23;20030;-71
2023/09/03 02:21:55;;;;;;;17.83;11.60;;;;;;;15.82;100.00;102006.78;6111027;23;20035;-70
2023/09/03 02:24:22;;;;;;;17.83;11.60;;;;;;;15.35;100.00;101965.94;6113925;23;20100;-69
2023/09/03 02:26:48;;;;;;;20.10;11.70;;;;;;;15.50;100.00;101973.09;6112050;23;20021;-71
2023/09/03 02:29:15;;;;;;;16.30;12.10;;;;;;;15.78;100.00;102013.16;6111287;23;20026;-70
2023/09/03 02:31:42;;;;;;;19.15;12.65;;;;;;;15.77;100.00;102017.59;6110139;23;20025;-70
2023/09/03 02:34:09;;;;;;;23.13;12.77;;;;;;;15.35;100.00;101977.41;6087444;23;20034;-70
2023/09/03 02:36:35;;;;;;;18.15;12.63;;;;;;;15.61;100.00;102022.78;6111130;23;20062;-71
2023/09/03 02:39:06;;;;;;;17.35;11.60;;;;;;;15.14;100.00;101950.28;6082465;23;20503;-70
2023/09/03 02:41:33;;;;;;;17.70;10.93;;;;;;;15.56;100.00;102030.97;6086667;23;20602;-70
2023/09/03 02:44:01;;;;;;;14.57;10.60;;;;;;;15.45;100.00;102006.88;6087795;23;20023;-71
2023/09/03 02:46:28;;;;;;;15.13;11.52;;;;;;;15.55;100.00;102033.69;6108486;23;20013;-70
2023/09/03 02:48:55;;;;;;;12.90;10.32;;;;;;;15.58;100.00;102027.41;6083597;23;20088;-69
2023/09/03 02:51:22;;;;;;;13.15;9.90;;;;;;;14.86;100.00;101910.31;6088957;23;20053;-70
2023/09/03 02:53:51;;;;;;;14.88;10.50;;;;;;;15.52;100.00;102012.72;6112642;23;20040;-69
2023/09/03 02:56:18;;;;;;;18.00;12.48;;;;;;;14.50;100.00;101831.94;6082991;23;20018;-72
2023/09/03 02:58:47;;;;;;;18.08;11.93;;;;;;;15.34;100.00;101988.06;6114054;23;20037;-72
2023/09/03 03:01:15;;;;;;;20.05;12.77;;;;;;;15.03;100.00;101955.22;6111591;23;20458;-71
2023/09/03 03:03:41;;;;;;;16.48;11.77;;;;;;;15.20;100.00;102009.06;6109464;23;20034;-71
2023/09/03 03:06:08;;;;;;;21.45;13.57;;;;;;;14.98;100.00;101999.56;6107225;23;20638;-71
2023/09/03 03:08:35;;;;;;;18.23;11.57;;;;;;;14.78;100.00;101933.63;6087378;23;20029;-72
2023/09/03 03:11:09;;;;;;;21.80;11.43;;;;;;;15.08;100.00;101990.25;6083960;23;20020;-71
2023/09/03 03:13:41;;;;;;;17.63;11.70;;;;;;;14.93;100.00;101977.78;6107475;23;20080;-71
2023/09/03 03:16:09;;;;;;;17.80;11.30;;;;;;;15.18;100.00;102026.81;6106522;23;20013;-71
2023/09/03 03:18:40;;;;;;;20.70;12.80;;;;;;;14.50;100.00;101927.03;6125942;23;20032;-71
2023/09/03 03:21:16;;;;;;;19.17;12.35;;;;;;;15.30;100.00;102068.50;6116061;23;20029;-72
2023/09/03 03:23:47;;;;;;;23.58;13.05;;;;;;;15.17;100.00;102084.09;6112511;23;20104;-71
2023/09/03 03:26:13;;;;;;;18.83;11.68;;;;;;;15.42;100.00;102101.44;6087378;23;20009;-70
2023/09/03 03:28:40;;;;;;;19.67;12.52;;;;;;;15.30;100.00;102052.63;6062565;23;20034;-71
2023/09/03 03:31:15;;;;;;;17.00;11.73;;;;;;;15.41;100.00;102062.66;6112794;23;20421;-72
2023/09/03 03:33:42;;;;;;;26.05;13.32;;;;;;;15.25;100.00;102026.41;6115622;23;20442;-71
2023/09/03 03:36:12;;;;;;;21.33;14.32;;;;;;;14.87;100.00;101970.16;6114036;23;20026;-71
2023/09/03 03:38:38;;;;;;;28.33;14.63;;;;;;;15.16;100.00;102046.25;6111529;23;20058;-71
2023/09/03 03:41:14;;;;;;;18.50;12.60;;;;;;;15.10;100.00;102041.25;6087956;23;20096;-71
2023/09/03 03:43:43;;;;;;;19.45;11.57;;;;;;;15.07;100.00;102035.25;6113804;23;20088;-71
2023/09/03 03:46:13;;;;;;;20.83;12.63;;;;;;;14.75;100.00;101977.78;6109688;23;20033;-71
2023/09/03 03:48:40;;;;;;;15.93;12.13;;;;;;;14.37;100.00;101900.34;6089069;23;20018;-70
2023/09/03 03:51:07;;;;;;;18.65;12.68;;;;;;;14.52;100.00;101882.91;6112874;23;20021;-72
2023/09/03 03:53:34;;;;;;;21.00;12.85;;;;;;;15.32;100.00;101990.78;6112220;23;20025;-69
2023/09/03 03:56:02;;;;;;;21.80;13.25;;;;;;;14.95;100.00;101930.97;6116602;23;20017;-70
2023/09/03 03:58:30;;;;;;;21.17;12.63;;;;;;;14.92;100.00;101910.84;6088082;23;20544;-73
2023/09/03 04:00:57;;;;;;;21.80;12.88;;;;;;;15.40;100.00;101990.38;6113036;23;20037;-71
2023/09/03 04:03:27;;;;;;;22.38;13.68;;;;;;;15.30;100.00;101970.66;6085176;23;20025;-70
2023/09/03 04:05:58;;;;;;;19.10;12.18;;;;;;;15.41;100.00;102007.94;6108783;23;20025;-70
2023/09/03 04:08:26;;;;;;;16.42;11.23;;;;;;;15.31;100.00;101980.28;6116383;23;20041;-71
2023/09/03 04:11:05;;;;;;;22.35;13.32;;;;;;;15.41;100.00;101981.50;6089574;23;20049;-70
2023/09/03 04:13:32;;;;;;;17.27;11.98;;;;;;;15.45;100.00;101993.63;6116033;23;20041;-71
2023/09/03 04:15:59;;;;;;;19.00;12.38;;;;;;;15.01;100.00;101930.66;6112001;23;20018;-70
2023/09/03 04:18:27;;;;;;;17.48;12.60;;;;;;;15.41;100.00;102004.47;6085970;23;20092;-72
2023/09/03 04:20:55;;;;;;;24.80;14.05;;;;;;;15.11;100.00;102013.91;6110469;23;20470;-71
2023/09/03 04:23:22;;;;;;;27.77;13.63;;;;;;;15.24;100.00;102037.06;6092192;23;20123;-71
2023/09/03 04:25:51;;;;;;;24.45;14.93;;;;;;;14.93;100.00;102017.44;6109906;23;20047;-70
2023/09/03 04:28:20;;;;;;;22.13;14.68;;;;;;;13.72;100.00;101811.09;6111832;23;20612;-71
2023/09/03 04:30:53;;;;;;;25.13;12.77;;;;;;;15.11;100.00;102048.28;6089652;23;20034;-70
2023/09/03 04:33:20;;;;;;;22.02;13.38;;;;;;;15.02;100.00;102048.72;6090038;23;20062;-71
2023/09/03 04:35:47;;;;;;;17.30;12.10;;;;;;;14.65;100.00;101992.34;6084818;23;20029;-71
2023/09/03 04:38:14;;;;;;;19.92;11.90;;;;;;;14.91;100.00;102043.09;6110554;23;20025;-71
2023/09/03 04:40:44;;;;;;;19.33;12.43;;;;;;;14.25;100.00;101956.41;6119168;23;20021;-70
2023/09/03 04:43:10;;;;;;;19.85;12.60;;;;;;;14.23;100.00;101990.84;6114257;23;20025;-71
2023/09/03 04:45:36;;;;;;;17.33;11.50;;;;;;;13.93;100.00;101959.66;6110436;23;20025;-71
2023/09/03 04:48:03;;;;;;;17.40;11.45;;;;;;;14.40;100.00;102047.28;6112200;23;20025;-70
2023/09/03 04:50:30;;;;;;;22.45;12.85;;;;;;;14.40;100.00;102079.81;6095891;23;20014;-70
2023/09/03 04:52:57;;;;;;;17.42;11.73;;;;;;;14.59;100.00;102122.09;6089806;23;20037;-72
2023/09/03 04:55:23;;;;;;;14.48;10.60;;;;;;;14.82;100.00;102093.78;6113662;23;20027;-70
2023/09/03 04:57:50;;;;;;;17.92;11.15;;;;;;;14.68;100.00;102062.72;6113801;23;20089;-70
2023/09/03 05:00:16;;;;;;;18.70;12.43;;;;;;;14.66;100.00;102088.34;6090619;23;20057;-70
2023/09/03 05:02:44;;;;;;;18.35;12.35;;;;;;;14.27;100.00;102070.75;6112468;23;20797;-69
2023/09/03 05:05:10;;;;;;;15.93;10.38;;;;;;;14.40;100.00;102097.47;6117096;23;20581;-71
2023/09/03 05:07:37;;;;;;;19.67;11.50;;;;;;;14.05;100.00;102071.72;6087406;23;20144;-70
2023/09/03 05:10:03;;;;;;;13.90;10.05;;;;;;;14.54;100.00;102145.22;6112551;23;20013;-70
2023/09/03 05:12:30;;;;;;;17.52;11.73;;;;;;;14.83;100.00;102150.97;6110598;23;20024;-70
2023/09/03 05:14:56;;;;;;;14.02;10.80;;;;;;;14.82;100.00;102157.19;6084556;23;20025;-70
2023/09/03 05:17:23;;;;;;;18.35;11.25;;;;;;;14.98;100.00;102158.19;6109270;23;20094;-70
2023/09/03 05:19:49;;;;;;;22.00;13.90;;;;;;;15.21;100.00;102156.22;6083746;23;20519;-70
2023/09/03 05:22:16;;;;;;;20.73;12.48;;;;;;;15.03;100.00;102126.22;6114526;23;20234;-70
2023/09/03 05:24:42;;;;;;;15.63;11.48;;;;;;;14.93;100.00;102136.38;6114397;23;20051;-70
2023/09/03 05:27:09;;;;;;;17.38;10.70;;;;;;;15.11;100.00;102153.16;6112192;23;20040;-70
2023/09/03 05:29:35;;;;;;;17.67;11.10;;;;;;;15.17;100.00;102155.50;6096770;23;20085;-71
2023/09/03 05:32:02;;;;;;;14.43;11.27;;;;;;;14.52;100.00;102044.06;6083565;23;20026;-70
2023/09/03 05:34:29;;;;;;;17.13;11.20;;;;;;;15.31;100.00;102166.28;6109655;23;20033;-70
2023/09/03 05:36:55;;;;;;;15.95;11.35;;;;;;;15.16;100.00;102125.56;6108488;23;20426;-70
2023/09/03 05:39:22;;;;;;;19.92;11.50;;;;;;;15.36;100.00;102115.81;6112171;23;20159;-70
2023/09/03 05:41:48;;;;;;;19.23;11.98;;;;;;;15.68;100.00;102148.59;6111880;23;20048;-70
2023/09/03 05:44:15;;;;;;;21.85;12.55;;;;;;;15.40;100.00;102127.94;6115931;23;20702;-71
2023/09/03 05:46:43;;;;;;;27.48;12.30;;;;;;;15.34;100.00;102117.69;6085285;23;20086;-70
2023/09/03 05:49:09;;;;;;;19.02;12.48;;;;;;;15.69;100.00;102170.63;6112352;23;20383;-71
2023/09/03 05:51:36;;;;;;;22.65;13.60;;;;;;;15.72;100.00;102154.59;6114618;23;20021;-70
2023/09/03 05:54:03;;;;;;;20.40;13.77;;;;;;;15.88;100.00;102155.56;6110187;23;20041;-70
2023/09/03 05:56:30;;;;;;;18.40;13.15;;;;;;;15.30;100.00;102060.56;6110561;23;20550;-70
2023/09/03 05:59:02;;;;;;;21.73;13.20;;;;;;;15.78;100.00;102166.69;6085700;23;20115;-70
2023/09/03 06:01:29;;;;;;;20.45;13.30;;;;;;;16.05;100.00;102183.78;6066745;23;20006;-70
2023/09/03 06:03:56;;;;;;;15.45;12.00;;;;;;;15.93;100.00;102136.78;6112831;23;20032;-70
2023/09/03 06:06:22;;;;;;;19.45;12.80;;;;;;;16.39;100.00;102192.63;6112092;23;20017;-70
2023/09/03 06:08:49;;;;;;;21.33;12.93;;;;;;;16.52;100.00;102188.41;6084743;23;20053;-70
2023/09/03 06:11:15;;;;;;;18.08;12.45;;;;;;;16.63;100.00;102194.91;6108789;23;20080;-70
2023/09/03 06:13:42;;;;;;;23.30;14.80;;;;;;;16.74;100.00;102200.50;6111281;23;20070;-72
2023/09/03 06:16:08;;;;;;;22.75;14.80;;;;;;;16.33;100.00;102130.22;6102291;23;20045;-70
2023/09/03 06:18:35;;;;;;;25.52;14.98;;;;;;;17.11;100.00;102203.81;6111224;23;20023;-70
2023/09/03 06:21:02;;;;;;;25.25;14.38;;;;;;;16.90;100.00;102124.50;6110568;23;20029;-70
2023/09/03 06:23:28;;;;;;;24.40;14.45;;;;;;;17.39;100.00;102167.75;6111557;23;20085;-70
2023/09/03 06:25:55;;;;;;;21.77;13.02;;;;;;;17.28;100.00;102153.31;6110731;23;20076;-70
2023/09/03 06:28:21;;;;;;;23.65;13.95;;;;;;;17.43;100.00;102170.13;6109420;23;20056;-71
2023/09/03 06:30:48;;;;;;;19.67;13.10;;;;;;;17.52;100.00;102174.09;6110160;23;20049;-69
2023/09/03 06:33:14;;;;;;;20.40;13.02;;;;;;;17.68;100.00;102158.09;6109695;23;20659;-71
2023/09/03 06:35:41;;;;;;;19.55;12.70;;;;;;;17.66;100.00;102149.34;6105475;23;20021;-70
2023/09/03 06:38:08;;;;;;;19.42;12.70;;;;;;;17.63;100.00;102117.69;6085367;23;20165;-70
2023/09/03 06:40:34;;;;;;;20.08;13.30;;;;;;;18.09;100.00;102123.75;6109265;23;20041;-70
2023/09/03 06:43:01;;;;;;;23.88;13.85;;;;;;;18.36;100.00;102154.06;6112060;23;20029;-70
2023/09/03 06:45:27;;;;;;;22.73;14.07;;;;;;;18.58;100.00;102159.72;6110209;23;20477;-70
2023/09/03 06:47:53;;;;;;;28.50;16.45;;;;;;;18.64;100.00;102139.88;6109511;23;20028;-70
2023/09/03 06:50:20;;;;;;;28.70;15.38;;;;;;;18.13;100.00;102117.31;6115294;23;20022;-70
2023/09/03 06:52:46;;;;;;;30.23;16.50;;;;;;;17.89;100.00;102108.19;6112457;23;20029;-70
2023/09/03 06:55:16;;;;;;;26.42;15.63;;;;;;;18.57;100.00;102160.69;6088322;23;20037;-70
2023/09/03 06:57:44;;;;;;;29.25;16.35;;;;;;;18.21;100.00;102046.91;6109236;23;20440;-70
2023/09/03 07:00:11;;;;;;;26.17;15.88;;;;;;;18.30;100.00;102094.16;6112691;23;20076;-71
2023/09/03 07:02:38;;;;;;;27.75;16.55;;;;;;;18.28;100.00;102126.16;6097209;23;20064;-70
2023/09/03 07:05:04;;;;;;;28.70;18.00;;;;;;;18.35;100.00;102137.25;6113278;23;20013;-70
2023/09/03 07:07:35;;;;;;;26.55;16.25;;;;;;;18.44;100.00;102142.00;6111157;23;20029;-70
2023/09/03 07:10:02;;;;;;;25.98;15.65;;;;;;;18.19;100.00;102109.94;6089655;23;20053;-71
2023/09/03 07:12:28;;;;;;;26.13;16.42;;;;;;;18.36;100.00;102138.09;6082760;23;20074;-71
2023/09/03 07:14:55;;;;;;;27.95;15.85;;;;;;;18.18;100.00;102125.03;6112293;23;20041;-69
2023/09/03 07:17:21;;;;;;;26.77;17.13;;;;;;;18.69;100.00;102164.41;6110223;23;20045;-69
2023/09/03 07:19:48;;;;;;;27.67;16.77;;;;;;;18.37;100.00;102082.19;6113056;23;20029;-69
2023/09/03 07:22:14;;;;;;;31.30;16.25;;;;;;;18.40;100.00;102091.78;6108124;23;20036;-69
2023/09/03 07:24:41;;;;;;;25.98;16.00;;;;;;;18.65;100.00;102117.66;6090651;23;20021;-69
2023/09/03 07:27:07;;;;;;;26.65;15.77;;;;;;;18.48;100.00;102065.56;6083089;23;20088;-70
2023/09/03 07:29:34;;;;;;;29.20;15.45;;;;;;;19.03;100.00;102109.91;6089047;23;20126;-70
2023/09/03 07:32:00;;;;;;;24.55;15.18;;;;;;;19.23;100.00;102081.97;6110267;23;20699;-70
2023/09/03 07:34:26;;;;;;;26.20;15.15;;;;;;;19.42;100.00;102033.66;6107924;23;20038;-70
2023/09/03 07:36:53;;;;;;;25.65;14.57;;;;;;;19.40;100.00;102008.09;6111952;23;20085;-69
2023/09/03 07:39:19;;;;;;;23.45;15.80;;;;;;;20.00;100.00;102050.09;6108595;23;20036;-69
2023/09/03 07:41:46;;;;;;;25.92;16.33;;;;;;;19.96;100.00;102008.63;6083802;23;20032;-71
2023/09/03 07:44:12;;;;;;;25.27;16.05;;;;;;;19.44;100.00;101951.88;6108004;23;20091;-70
2023/09/03 07:46:39;;;;;;;28.30;16.10;;;;;;;19.61;100.00;101972.00;6111614;23;20032;-69
2023/09/03 07:49:05;;;;;;;25.17;15.23;;;;;;;19.24;100.00;102032.25;6082210;23;20021;-69
2023/09/03 07:51:32;;;;;;;22.90;16.02;;;;;;;19.11;100.00;102073.00;6107882;23;20739;-69
2023/09/03 07:53:58;;;;;;;25.50;16.65;;;;;;;18.77;100.00;102047.72;6107924;23;20037;-69
2023/09/03 07:56:25;;;;;;;25.70;15.55;;;;;;;19.45;100.00;102123.13;6110042;23;20013;-71
2023/09/03 07:58:51;;;;;;;27.90;16.75;;;;;;;19.02;100.00;102070.94;6084140;23;20037;-70
2023/09/03 08:01:19;;;;;;;27.35;15.75;;;;;;;19.22;100.00;102104.22;6106552;23;20112;-70
2023/09/03 08:03:46;;;;;;;26.67;15.20;;;;;;;19.43;100.00;102135.69;6112211;23;20033;-70
2023/09/03 08:06:13;;;;;;;29.02;16.38;;;;;;;19.56;100.00;102104.59;6094009;23;20037;-70
2023/09/03 08:08:40;;;;;;;24.50;15.05;;;;;;;19.90;100.00;102078.34;6113901;23;20034;-70
2023/09/03 08:11:07;;;;;;;28.42;15.98;;;;;;;19.52;100.00;102060.50;6068121;23;20025;-70
2023/09/03 08:13:33;;;;;;;23.58;15.50;;;;;;;19.70;100.00;102077.03;6114133;23;20029;-70
2023/09/03 08:16:02;;;;;;;27.83;16.35;;;;;;;19.50;100.00;102042.00;6092268;23;20132;-70
2023/09/03 08:18:28;;;;;;;26.83;16.83;;;;;;;19.68;100.00;102061.16;6115183;23;20069;-70
2023/09/03 08:20:54;;;;;;;25.65;15.45;;;;;;;18.96;100.00;101893.09;6091184;23;20467;-70
2023/09/03 08:23:21;;;;;;;25.35;15.13;;;;;;;20.11;100.00;102070.66;6116171;23;20104;-70
2023/09/03 08:25:48;;;;;;;28.60;16.38;;;;;;;19.58;100.00;102004.16;6111055;23;20895;-70
2023/09/03 08:28:15;;;;;;;31.20;15.90;;;;;;;19.65;100.00;102066.72;6109715;23;20006;-70
2023/09/03 08:30:41;;;;;;;23.08;15.20;;;;;;;19.73;100.00;102050.22;6114898;23;20459;-70
2023/09/03 08:33:08;;;;;;;26.85;16.00;;;;;;;19.89;100.00;102028.69;6108327;23;21015;-70
2023/09/03 08:35:36;;;;;;;23.90;14.48;;;;;;;19.89;100.00;102047.34;6113103;23;20052;-71
2023/09/03 08:38:03;;;;;;;24.83;15.10;;;;;;;19.79;100.00;102033.81;6096273;23;20022;-70
2023/09/03 08:40:32;;;;;;;24.65;15.15;;;;;;;19.92;100.00;102058.66;6115430;23;20090;-70
2023/09/03 08:42:59;;;;;;;24.90;16.02;;;;;;;20.07;100.00;102102.00;6092723;23;20044;-70
2023/09/03 08:45:30;;;;;;;22.95;14.65;;;;;;;20.23;100.00;102037.81;6114018;23;20040;-70
2023/09/03 08:47:57;;;;;;;24.23;14.90;;;;;;;20.85;100.00;102068.03;6061316;23;20042;-70
2023/09/03 08:50:25;;;;;;;19.45;13.63;;;;;;;21.01;97.22;102017.06;6115962;23;20017;-69
2023/09/03 08:52:52;;;;;;;19.15;13.77;;;;;;;21.12;94.60;101991.22;6117624;23;20037;-70
2023/09/03 08:55:19;;;;;;;22.10;15.02;;;;;;;20.94;93.12;101911.72;6112981;23;20030;-70
2023/09/03 08:57:45;;;;;;;20.90;14.02;;;;;;;21.35;93.38;101971.72;6088612;23;20131;-69
2023/09/03 09:00:13;;;;;;;20.95;14.20;;;;;;;21.55;90.98;101939.00;6110360;23;20678;-70
2023/09/03 09:02:42;;;;;;;20.40;12.93;;;;;;;21.20;89.65;101886.50;6093674;23;20941;-71
2023/09/03 09:05:09;;;;;;;22.10;13.75;;;;;;;21.60;90.06;101939.47;6081801;23;20026;-69
2023/09/03 09:07:36;;;;;;;19.55;12.55;;;;;;;21.68;90.27;101939.72;6116087;23;20025;-69
2023/09/03 09:10:06;;;;;;;26.65;15.07;;;;;;;21.74;86.67;101844.88;6085214;23;20058;-69
2023/09/03 09:12:45;;;;;;;20.88;13.60;;;;;;;21.71;86.38;101847.81;6116214;23;20005;-70
2023/09/03 09:15:11;;;;;;;18.92;13.65;;;;;;;21.55;84.15;101772.53;6114455;23;20029;-69
2023/09/03 09:17:42;;;;;;;21.15;14.57;;;;;;;21.80;87.56;101905.81;6113950;23;20059;-69
2023/09/03 09:20:18;;;;;;;19.52;13.80;;;;;;;21.70;87.49;101899.53;6111632;23;20048;-69
2023/09/03 09:22:49;;;;;;;21.48;14.77;;;;;;;21.74;88.78;101913.50;6113883;23;20041;-69
2023/09/03 09:25:28;;;;;;;14.13;11.75;;;;;;;21.71;86.83;101840.63;6092149;23;20018;-69
2023/09/03 09:27:56;;;;;;;18.65;11.98;;;;;;;22.13;80.97;101764.16;6085454;23;20045;-71
2023/09/03 09:30:25;;;;;;;17.27;12.57;;;;;;;22.30;79.88;101761.78;6111975;23;20077;-69
2023/09/03 09:33:06;;;;;;;16.90;12.38;;;;;;;22.41;80.85;101840.28;6080714;23;20038;-68
2023/09/03 09:35:33;;;;;;;14.40;11.40;;;;;;;22.68;78.19;101800.47;6114920;23;20021;-69
2023/09/03 09:38:04;;;;;;;16.75;11.75;;;;;;;22.83;76.87;101770.66;6111005;23;20468;-70
2023/09/03 09:40:31;;;;;;;16.47;12.03;;;;;;;22.69;74.44;101704.97;6110754;23;20021;-69
2023/09/03 09:43:01;;;;;;;16.00;11.32;;;;;;;22.07;74.65;101658.59;6091559;23;20303;-69
2023/09/03 09:45:27;;;;;;;16.25;10.80;;;;;;;21.77;72.90;101611.28;6088765;23;20495;-69
2023/09/03 09:48:06;;;;;;;11.80;9.90;;;;;;;21.62;69.48;101504.78;6092260;23;20021;-69
2023/09/03 09:50:34;;;;;;;15.00;11.30;;;;;;;21.77;74.53;101703.00;6115424;23;20584;-72
2023/09/03 09:53:02;;;;;;;16.17;12.27;;;;;;;21.83;74.32;101723.00;6081071;23;20088;-71
2023/09/03 09:55:31;;;;;;;18.35;11.77;;;;;;;21.95;73.02;101694.41;6114240;23;20104;-69
2023/09/03 09:58:01;;;;;;;10.80;9.75;;;;;;;22.21;67.51;101529.06;6085883;23;20098;-69
2023/09/03 10:00:35;;;;;;;15.25;11.52;;;;;;;22.10;69.98;101626.28;6109675;23;20027;-70
2023/09/03 10:03:04;;;;;;;18.38;11.77;;;;;;;21.87;72.08;101709.28;6096167;23;20032;-70
2023/09/03 10:05:31;;;;;;;13.23;10.55;;;;;;;22.41;70.19;101699.38;6111405;23;20021;-69
2023/09/03 10:07:59;;;;;;;18.48;11.13;;;;;;;22.39;68.17;101618.44;6110250;23;20044;-70
2023/09/03 10:10:26;;;;;;;12.57;11.27;;;;;;;22.36;67.35;101599.13;6088855;23;20021;-71
2023/09/03 10:12:53;;;;;;;13.93;11.00;;;;;;;22.56;69.59;101740.00;6109805;23;20021;-71
2023/09/03 10:15:21;;;;;;;13.18;10.55;;;;;;;22.72;65.55;101583.47;6115941;23;20622;-70
2023/09/03 10:17:51;;;;;;;13.10;11.00;;;;;;;23.05;68.02;101740.22;6096361;23;20009;-71
2023/09/03 10:20:20;;;;;;;14.02;10.90;;;;;;;22.88;67.18;101666.75;6089889;23;20188;-70
2023/09/03 10:22:51;;;;;;;11.98;10.30;;;;;;;22.63;65.91;101610.06;6086269;23;20068;-70
2023/09/03 10:25:22;;;;;;;14.00;10.48;;;;;;;22.64;67.38;101710.75;6110342;23;20104;-70
2023/09/03 10:27:59;;;;;;;13.10;10.48;;;;;;;22.64;66.69;101651.88;6114919;23;20532;-69
2023/09/03 10:30:31;;;;;;;10.38;9.27;;;;;;;22.72;64.46;101551.34;6108111;23;20021;-69
2023/09/03 10:32:59;;;;;;;10.35;9.35;;;;;;;22.43;62.73;101483.44;6079541;23;20052;-70
2023/09/03 10:35:25;;;;;;;10.43;9.27;;;;;;;22.62;62.92;101517.38;6109524;23;20029;-70
2023/09/03 10:37:52;;;;;;;10.25;9.20;;;;;;;22.77;61.94;101525.88;6115221;23;20013;-70
2023/09/03 10:40:24;;;;;;;9.57;8.68;;;;;;;22.75;61.29;101530.47;6117802;23;20028;-70
2023/09/03 10:42:52;;;;;;;9.00;8.20;;;;;;;22.69;60.75;101497.13;6089081;23;20042;-70
2023/09/03 10:45:18;;;;;;;7.90;7.20;;;;;;;22.57;56.66;101260.16;6109039;23;20072;-69
2023/09/03 10:48:05;;;;;;;8.32;7.40;;;;;;;22.64;56.99;101335.31;6088233;23;20043;-70
2023/09/03 10:50:48;;;;;;;8.07;7.47;;;;;;;22.51;58.20;101455.97;6085183;23;20029;-74
2023/09/03 10:53:42;;;;;;;7.97;7.40;;;;;;;23.06;57.72;101514.34;6110325;23;20029;-75
2023/09/03 10:56:17;;;;;;;8.02;7.40;;;;;;;22.64;56.76;101456.56;6111434;23;20032;-72
2023/09/03 10:59:00;;;;;;;8.20;7.53;;;;;;;22.05;56.37;101367.38;6112610;23;20040;-73
2023/09/03 11:01:31;;;;;;;7.25;6.75;;;;;;;22.99;55.91;101479.25;6114524;23;20043;-74
2023/09/03 11:04:02;;;;;;;7.45;6.82;;;;;;;23.53;55.13;101518.91;6085927;23;20037;-73
2023/09/03 11:06:33;;;;;;;7.75;7.25;;;;;;;23.72;54.92;101559.06;6116576;23;20076;-73
2023/09/03 11:09:12;;;;;;;7.90;7.30;;;;;;;24.03;55.65;101666.13;6089780;23;20056;-73
2023/09/03 11:11:39;;;;;;;8.00;7.40;;;;;;;24.14;55.62;101654.41;6092250;23;20048;-72